sensor_id;sensor_type;location;lat;lon;timestamp;temperature;humidity
15111;DHT22;7656;51.954;7.998;2022-12-17T00:03:33;-4.20;99.90
15111;DHT22;7656;51.954;7.998;2022-12-17T00:08:13;-4.00;99.90
15111;DHT22;7656;51.954;7.998;2022-12-17T00:12:53;-3.90;99.90
15111;DHT22;7656;51.954;7.998;2022-12-17T00:17:33;-3.70;99.90
15111;DHT22;7656;51.954;7.998;2022-12-17T00:22:13;-3.60;99.90
15111;DHT22;7656;51.954;7.998;2022-12-17T00:26:52;-3.60;99.90
15111;DHT22;7656;51.954;7.998;2022-12-17T00:31:32;-3.50;99.90
15111;DHT22;7656;51.954;7.998;2022-12-17T00:36:11;-3.50;99.90
15111;DHT22;7656;51.954;7.998;2022-12-17T00:40:51;-3.40;99.90
15111;DHT22;7656;51.954;7.998;2022-12-17T00:45:31;-3.70;99.90
15111;DHT22;7656;51.954;7.998;2022-12-17T00:50:11;-3.80;99.90
15111;DHT22;7656;51.954;7.998;2022-12-17T00:54:51;-4.00;99.90
15111;DHT22;7656;51.954;7.998;2022-12-17T00:59:31;-3.80;99.90
15111;DHT22;7656;51.954;7.998;2022-12-17T01:04:11;-3.50;99.90
15111;DHT22;7656;51.954;7.998;2022-12-17T01:08:52;-3.40;99.90
15111;DHT22;7656;51.954;7.998;2022-12-17T01:13:32;-3.30;99.90
15111;DHT22;7656;51.954;7.998;2022-12-17T01:18:17;-3.30;99.90
15111;DHT22;7656;51.954;7.998;2022-12-17T01:22:57;-3.20;99.90
15111;DHT22;7656;51.954;7.998;2022-12-17T01:27:37;-3.30;99.90
15111;DHT22;7656;51.954;7.998;2022-12-17T01:32:16;-3.30;99.90
15111;DHT22;7656;51.954;7.998;2022-12-17T01:36:56;-3.40;99.90
15111;DHT22;7656;51.954;7.998;2022-12-17T01:41:35;-3.50;99.90
15111;DHT22;7656;51.954;7.998;2022-12-17T01:46:16;-3.40;99.90
15111;DHT22;7656;51.954;7.998;2022-12-17T01:50:57;-3.40;99.90
15111;DHT22;7656;51.954;7.998;2022-12-17T01:55:37;-3.50;99.90
15111;DHT22;7656;51.954;7.998;2022-12-17T02:00:17;-3.30;99.90
15111;DHT22;7656;51.954;7.998;2022-12-17T02:04:58;-3.30;99.90
15111;DHT22;7656;51.954;7.998;2022-12-17T02:09:49;-3.30;99.90
15111;DHT22;7656;51.954;7.998;2022-12-17T02:14:56;-3.30;99.90
15111;DHT22;7656;51.954;7.998;2022-12-17T02:24:57;-3.40;99.90
15111;DHT22;7656;51.954;7.998;2022-12-17T02:29:49;-3.50;99.90
15111;DHT22;7656;51.954;7.998;2022-12-17T02:34:43;-3.50;99.90
15111;DHT22;7656;51.954;7.998;2022-12-17T02:39:24;-3.50;99.90
15111;DHT22;7656;51.954;7.998;2022-12-17T02:44:05;-3.50;99.90
15111;DHT22;7656;51.954;7.998;2022-12-17T02:48:47;-3.60;99.90
15111;DHT22;7656;51.954;7.998;2022-12-17T02:53:26;-3.70;99.90
15111;DHT22;7656;51.954;7.998;2022-12-17T02:58:06;-3.60;99.90
15111;DHT22;7656;51.954;7.998;2022-12-17T03:02:46;-3.50;99.90
15111;DHT22;7656;51.954;7.998;2022-12-17T03:07:47;-3.60;99.90
15111;DHT22;7656;51.954;7.998;2022-12-17T03:12:27;-3.90;99.90
15111;DHT22;7656;51.954;7.998;2022-12-17T03:17:06;-4.30;99.90
15111;DHT22;7656;51.954;7.998;2022-12-17T03:21:46;-4.40;99.90
15111;DHT22;7656;51.954;7.998;2022-12-17T03:26:25;-4.10;99.90
15111;DHT22;7656;51.954;7.998;2022-12-17T03:31:05;-4.10;99.90
15111;DHT22;7656;51.954;7.998;2022-12-17T03:35:45;-4.00;99.90
15111;DHT22;7656;51.954;7.998;2022-12-17T03:40:24;-4.60;99.90
15111;DHT22;7656;51.954;7.998;2022-12-17T03:45:05;-4.60;99.90
15111;DHT22;7656;51.954;7.998;2022-12-17T03:49:45;-4.30;99.90
15111;DHT22;7656;51.954;7.998;2022-12-17T03:54:24;-4.30;99.90
15111;DHT22;7656;51.954;7.998;2022-12-17T03:59:04;-4.60;99.90
15111;DHT22;7656;51.954;7.998;2022-12-17T04:03:43;-4.50;99.90
15111;DHT22;7656;51.954;7.998;2022-12-17T04:08:22;-4.50;99.90
15111;DHT22;7656;51.954;7.998;2022-12-17T04:13:02;-4.70;99.90
15111;DHT22;7656;51.954;7.998;2022-12-17T04:17:42;-4.80;99.90
15111;DHT22;7656;51.954;7.998;2022-12-17T04:22:21;-4.80;99.90
15111;DHT22;7656;51.954;7.998;2022-12-17T04:27:18;-4.90;99.90
15111;DHT22;7656;51.954;7.998;2022-12-17T04:31:57;-5.20;99.90
15111;DHT22;7656;51.954;7.998;2022-12-17T04:36:38;-4.60;99.90
15111;DHT22;7656;51.954;7.998;2022-12-17T04:41:18;-4.60;99.90
15111;DHT22;7656;51.954;7.998;2022-12-17T04:45:57;-4.40;99.90
15111;DHT22;7656;51.954;7.998;2022-12-17T04:50:37;-4.60;99.90
15111;DHT22;7656;51.954;7.998;2022-12-17T04:55:16;-5.20;99.90
15111;DHT22;7656;51.954;7.998;2022-12-17T04:59:55;-5.40;99.90
15111;DHT22;7656;51.954;7.998;2022-12-17T05:04:35;-5.20;99.90
15111;DHT22;7656;51.954;7.998;2022-12-17T05:09:15;-5.40;99.90
15111;DHT22;7656;51.954;7.998;2022-12-17T05:13:54;-5.70;99.90
15111;DHT22;7656;51.954;7.998;2022-12-17T05:18:34;-5.50;99.90
15111;DHT22;7656;51.954;7.998;2022-12-17T05:23:13;-5.60;99.90
15111;DHT22;7656;51.954;7.998;2022-12-17T05:28:13;-5.70;99.90
15111;DHT22;7656;51.954;7.998;2022-12-17T05:33:00;-5.80;99.90
15111;DHT22;7656;51.954;7.998;2022-12-17T05:37:41;-5.60;99.90
15111;DHT22;7656;51.954;7.998;2022-12-17T05:42:20;-5.50;99.90
15111;DHT22;7656;51.954;7.998;2022-12-17T05:47:00;-5.50;99.90
15111;DHT22;7656;51.954;7.998;2022-12-17T05:51:40;-5.60;99.90
15111;DHT22;7656;51.954;7.998;2022-12-17T05:56:20;-5.60;99.90
15111;DHT22;7656;51.954;7.998;2022-12-17T06:01:01;-5.70;99.90
15111;DHT22;7656;51.954;7.998;2022-12-17T06:05:42;-5.60;99.90
15111;DHT22;7656;51.954;7.998;2022-12-17T06:10:22;-5.70;99.90
15111;DHT22;7656;51.954;7.998;2022-12-17T06:15:02;-5.60;99.90
15111;DHT22;7656;51.954;7.998;2022-12-17T06:19:41;-5.40;99.90
15111;DHT22;7656;51.954;7.998;2022-12-17T06:24:21;-5.60;99.90
15111;DHT22;7656;51.954;7.998;2022-12-17T06:29:20;-5.10;99.90
15111;DHT22;7656;51.954;7.998;2022-12-17T06:34:00;-5.50;99.90
15111;DHT22;7656;51.954;7.998;2022-12-17T06:38:39;-5.20;99.90
15111;DHT22;7656;51.954;7.998;2022-12-17T06:43:19;-5.00;99.90
15111;DHT22;7656;51.954;7.998;2022-12-17T06:48:03;-5.20;99.90
15111;DHT22;7656;51.954;7.998;2022-12-17T06:52:43;-5.40;99.90
15111;DHT22;7656;51.954;7.998;2022-12-17T06:57:23;-5.40;99.90
15111;DHT22;7656;51.954;7.998;2022-12-17T07:02:02;-5.10;99.90
15111;DHT22;7656;51.954;7.998;2022-12-17T07:06:41;-4.90;99.90
15111;DHT22;7656;51.954;7.998;2022-12-17T07:11:21;-4.90;99.90
15111;DHT22;7656;51.954;7.998;2022-12-17T07:16:11;-5.30;99.90
15111;DHT22;7656;51.954;7.998;2022-12-17T07:20:52;-5.30;99.90
15111;DHT22;7656;51.954;7.998;2022-12-17T07:25:32;-5.30;99.90
15111;DHT22;7656;51.954;7.998;2022-12-17T07:30:11;-5.20;99.90
15111;DHT22;7656;51.954;7.998;2022-12-17T07:34:51;-5.00;99.90
15111;DHT22;7656;51.954;7.998;2022-12-17T07:39:31;-5.10;99.90
15111;DHT22;7656;51.954;7.998;2022-12-17T07:44:10;-5.00;99.90
15111;DHT22;7656;51.954;7.998;2022-12-17T07:48:50;-4.80;99.90
15111;DHT22;7656;51.954;7.998;2022-12-17T07:53:29;-5.10;99.90
15111;DHT22;7656;51.954;7.998;2022-12-17T07:58:10;-5.10;99.90
15111;DHT22;7656;51.954;7.998;2022-12-17T08:02:58;-5.00;99.90
15111;DHT22;7656;51.954;7.998;2022-12-17T08:07:39;-5.00;99.90
15111;DHT22;7656;51.954;7.998;2022-12-17T08:12:19;-5.10;99.90
15111;DHT22;7656;51.954;7.998;2022-12-17T08:16:58;-4.80;99.90
15111;DHT22;7656;51.954;7.998;2022-12-17T08:21:49;-4.60;99.90
15111;DHT22;7656;51.954;7.998;2022-12-17T08:26:28;-4.70;99.90
15111;DHT22;7656;51.954;7.998;2022-12-17T08:31:08;-4.50;99.90
15111;DHT22;7656;51.954;7.998;2022-12-17T08:35:54;-4.50;99.90
15111;DHT22;7656;51.954;7.998;2022-12-17T08:40:34;-4.70;99.90
15111;DHT22;7656;51.954;7.998;2022-12-17T08:45:14;-4.80;99.90
15111;DHT22;7656;51.954;7.998;2022-12-17T08:49:53;-4.80;99.90
15111;DHT22;7656;51.954;7.998;2022-12-17T08:54:33;-4.80;99.90
15111;DHT22;7656;51.954;7.998;2022-12-17T08:59:13;-4.70;99.90
15111;DHT22;7656;51.954;7.998;2022-12-17T09:03:52;-4.30;99.90
15111;DHT22;7656;51.954;7.998;2022-12-17T09:08:32;-4.20;99.90
15111;DHT22;7656;51.954;7.998;2022-12-17T09:13:11;-4.40;99.90
15111;DHT22;7656;51.954;7.998;2022-12-17T09:17:51;-4.40;99.90
15111;DHT22;7656;51.954;7.998;2022-12-17T09:22:31;-4.30;99.90
15111;DHT22;7656;51.954;7.998;2022-12-17T09:27:10;-4.40;99.90
15111;DHT22;7656;51.954;7.998;2022-12-17T09:31:50;-4.50;99.90
15111;DHT22;7656;51.954;7.998;2022-12-17T09:36:30;-4.30;99.90
15111;DHT22;7656;51.954;7.998;2022-12-17T09:41:39;-4.70;99.90
15111;DHT22;7656;51.954;7.998;2022-12-17T09:46:26;-4.80;99.90
15111;DHT22;7656;51.954;7.998;2022-12-17T09:51:24;-4.80;99.90
15111;DHT22;7656;51.954;7.998;2022-12-17T09:56:05;-4.80;99.90
15111;DHT22;7656;51.954;7.998;2022-12-17T10:00:48;-4.60;99.90
15111;DHT22;7656;51.954;7.998;2022-12-17T10:05:35;-4.50;99.90
15111;DHT22;7656;51.954;7.998;2022-12-17T10:10:25;-4.70;99.90
15111;DHT22;7656;51.954;7.998;2022-12-17T10:15:13;-4.50;99.90
15111;DHT22;7656;51.954;7.998;2022-12-17T10:19:54;-4.10;99.90
15111;DHT22;7656;51.954;7.998;2022-12-17T10:24:43;-4.40;99.90
15111;DHT22;7656;51.954;7.998;2022-12-17T10:29:24;-4.20;99.90
15111;DHT22;7656;51.954;7.998;2022-12-17T10:34:06;-4.10;99.90
15111;DHT22;7656;51.954;7.998;2022-12-17T10:38:54;-4.20;99.90
15111;DHT22;7656;51.954;7.998;2022-12-17T10:43:38;-4.00;99.90
15111;DHT22;7656;51.954;7.998;2022-12-17T10:52:58;-2.60;99.90
15111;DHT22;7656;51.954;7.998;2022-12-17T10:57:38;-2.80;99.90
15111;DHT22;7656;51.954;7.998;2022-12-17T11:02:25;-2.40;99.90
15111;DHT22;7656;51.954;7.998;2022-12-17T11:07:06;-2.90;99.90
15111;DHT22;7656;51.954;7.998;2022-12-17T11:12:05;-3.40;99.90
15111;DHT22;7656;51.954;7.998;2022-12-17T11:16:54;-3.50;99.90
15111;DHT22;7656;51.954;7.998;2022-12-17T11:21:46;-3.00;99.90
15111;DHT22;7656;51.954;7.998;2022-12-17T11:26:31;-3.30;99.90
15111;DHT22;7656;51.954;7.998;2022-12-17T11:41:24;-3.50;99.90
15111;DHT22;7656;51.954;7.998;2022-12-17T11:51:40;-3.00;99.90
15111;DHT22;7656;51.954;7.998;2022-12-17T11:56:43;-2.40;99.90
15111;DHT22;7656;51.954;7.998;2022-12-17T12:01:43;-1.90;99.90
15111;DHT22;7656;51.954;7.998;2022-12-17T12:06:47;-1.60;99.90
15111;DHT22;7656;51.954;7.998;2022-12-17T12:27:35;-2.90;99.90
15111;DHT22;7656;51.954;7.998;2022-12-17T12:37:35;-1.80;99.90
15111;DHT22;7656;51.954;7.998;2022-12-17T12:42:36;-1.50;99.90
15111;DHT22;7656;51.954;7.998;2022-12-17T12:47:31;-1.60;99.90
15111;DHT22;7656;51.954;7.998;2022-12-17T12:52:27;-1.70;99.90
15111;DHT22;7656;51.954;7.998;2022-12-17T13:02:28;-1.40;99.90
15111;DHT22;7656;51.954;7.998;2022-12-17T13:07:24;-1.20;99.90
15111;DHT22;7656;51.954;7.998;2022-12-17T13:16:30;-1.90;99.90
15111;DHT22;7656;51.954;7.998;2022-12-17T13:20:59;-2.80;99.90
15111;DHT22;7656;51.954;7.998;2022-12-17T13:25:36;-3.00;99.90
15111;DHT22;7656;51.954;7.998;2022-12-17T13:34:50;-2.60;99.90
15111;DHT22;7656;51.954;7.998;2022-12-17T13:44:15;-3.60;99.90
15111;DHT22;7656;51.954;7.998;2022-12-17T13:48:39;-3.70;99.90
15111;DHT22;7656;51.954;7.998;2022-12-17T13:53:11;-3.40;99.90
15111;DHT22;7656;51.954;7.998;2022-12-17T13:57:36;-3.00;99.90
15111;DHT22;7656;51.954;7.998;2022-12-17T14:01:57;-2.30;99.90
15111;DHT22;7656;51.954;7.998;2022-12-17T14:06:19;-1.90;99.90
15111;DHT22;7656;51.954;7.998;2022-12-17T14:10:52;-2.40;99.90
15111;DHT22;7656;51.954;7.998;2022-12-17T14:15:34;-2.80;99.90
15111;DHT22;7656;51.954;7.998;2022-12-17T14:19:59;-3.40;99.90
15111;DHT22;7656;51.954;7.998;2022-12-17T14:24:25;-3.60;99.90
15111;DHT22;7656;51.954;7.998;2022-12-17T14:28:51;-4.10;99.90
15111;DHT22;7656;51.954;7.998;2022-12-17T14:37:51;-3.90;99.90
15111;DHT22;7656;51.954;7.998;2022-12-17T14:42:21;-3.80;99.90
15111;DHT22;7656;51.954;7.998;2022-12-17T14:46:46;-3.90;99.90
15111;DHT22;7656;51.954;7.998;2022-12-17T14:51:30;-4.10;99.90
15111;DHT22;7656;51.954;7.998;2022-12-17T14:55:57;-4.20;99.90
15111;DHT22;7656;51.954;7.998;2022-12-17T15:00:19;-4.30;99.90
15111;DHT22;7656;51.954;7.998;2022-12-17T15:04:41;-4.50;99.90
15111;DHT22;7656;51.954;7.998;2022-12-17T15:09:03;-4.50;99.90
15111;DHT22;7656;51.954;7.998;2022-12-17T15:13:24;-4.70;99.90
15111;DHT22;7656;51.954;7.998;2022-12-17T15:17:45;-4.60;99.90
15111;DHT22;7656;51.954;7.998;2022-12-17T15:22:15;-3.90;99.90
15111;DHT22;7656;51.954;7.998;2022-12-17T15:26:36;-3.90;99.90
15111;DHT22;7656;51.954;7.998;2022-12-17T15:30:57;-3.90;99.90
15111;DHT22;7656;51.954;7.998;2022-12-17T15:35:18;-3.80;99.90
15111;DHT22;7656;51.954;7.998;2022-12-17T15:39:39;-3.90;99.90
15111;DHT22;7656;51.954;7.998;2022-12-17T15:44:01;-4.00;99.90
15111;DHT22;7656;51.954;7.998;2022-12-17T15:48:22;-4.30;99.90
15111;DHT22;7656;51.954;7.998;2022-12-17T15:52:43;-4.50;99.90
15111;DHT22;7656;51.954;7.998;2022-12-17T15:57:04;-4.80;99.90
15111;DHT22;7656;51.954;7.998;2022-12-17T16:01:25;-4.90;99.90
15111;DHT22;7656;51.954;7.998;2022-12-17T16:05:46;-5.00;99.90
15111;DHT22;7656;51.954;7.998;2022-12-17T16:10:08;-4.80;99.90
15111;DHT22;7656;51.954;7.998;2022-12-17T16:14:29;-5.00;99.90
15111;DHT22;7656;51.954;7.998;2022-12-17T16:18:51;-4.80;99.90
15111;DHT22;7656;51.954;7.998;2022-12-17T16:23:12;-4.80;99.90
15111;DHT22;7656;51.954;7.998;2022-12-17T16:27:33;-5.20;99.90
15111;DHT22;7656;51.954;7.998;2022-12-17T16:31:54;-5.30;99.90
15111;DHT22;7656;51.954;7.998;2022-12-17T16:36:17;-5.30;99.90
15111;DHT22;7656;51.954;7.998;2022-12-17T16:40:39;-4.90;99.90
15111;DHT22;7656;51.954;7.998;2022-12-17T16:45:00;-4.50;99.90
15111;DHT22;7656;51.954;7.998;2022-12-17T16:49:23;-4.20;99.90
15111;DHT22;7656;51.954;7.998;2022-12-17T16:53:44;-4.50;99.90
15111;DHT22;7656;51.954;7.998;2022-12-17T16:58:05;-4.90;99.90
15111;DHT22;7656;51.954;7.998;2022-12-17T17:02:26;-5.20;99.90
15111;DHT22;7656;51.954;7.998;2022-12-17T17:06:50;-5.10;99.90
15111;DHT22;7656;51.954;7.998;2022-12-17T17:11:21;-5.30;99.90
15111;DHT22;7656;51.954;7.998;2022-12-17T17:15:43;-4.60;99.90
15111;DHT22;7656;51.954;7.998;2022-12-17T17:20:04;-4.30;99.90
15111;DHT22;7656;51.954;7.998;2022-12-17T17:24:26;-4.10;99.90
15111;DHT22;7656;51.954;7.998;2022-12-17T17:28:47;-4.30;99.90
15111;DHT22;7656;51.954;7.998;2022-12-17T17:33:09;-4.90;99.90
15111;DHT22;7656;51.954;7.998;2022-12-17T17:37:30;-5.20;99.90
15111;DHT22;7656;51.954;7.998;2022-12-17T17:41:51;-5.30;99.90
15111;DHT22;7656;51.954;7.998;2022-12-17T17:46:17;-5.60;99.90
15111;DHT22;7656;51.954;7.998;2022-12-17T17:50:38;-5.80;99.90
15111;DHT22;7656;51.954;7.998;2022-12-17T17:54:59;-6.00;99.90
15111;DHT22;7656;51.954;7.998;2022-12-17T17:59:20;-6.10;99.90
15111;DHT22;7656;51.954;7.998;2022-12-17T18:03:43;-5.80;99.90
15111;DHT22;7656;51.954;7.998;2022-12-17T18:08:04;-5.60;99.90
15111;DHT22;7656;51.954;7.998;2022-12-17T18:12:25;-5.30;99.90
15111;DHT22;7656;51.954;7.998;2022-12-17T18:17:05;-5.40;99.90
15111;DHT22;7656;51.954;7.998;2022-12-17T18:21:27;-5.80;99.90
15111;DHT22;7656;51.954;7.998;2022-12-17T18:25:50;-5.90;99.90
15111;DHT22;7656;51.954;7.998;2022-12-17T18:30:12;-5.90;99.90
15111;DHT22;7656;51.954;7.998;2022-12-17T18:34:33;-5.90;99.90
15111;DHT22;7656;51.954;7.998;2022-12-17T18:39:00;-5.80;99.90
15111;DHT22;7656;51.954;7.998;2022-12-17T18:43:23;-5.80;99.90
15111;DHT22;7656;51.954;7.998;2022-12-17T18:47:44;-5.70;99.90
15111;DHT22;7656;51.954;7.998;2022-12-17T18:52:06;-6.00;99.90
15111;DHT22;7656;51.954;7.998;2022-12-17T18:56:28;-6.40;99.90
15111;DHT22;7656;51.954;7.998;2022-12-17T19:00:49;-6.30;99.90
15111;DHT22;7656;51.954;7.998;2022-12-17T19:05:10;-6.50;99.90
15111;DHT22;7656;51.954;7.998;2022-12-17T19:09:32;-6.70;99.90
15111;DHT22;7656;51.954;7.998;2022-12-17T19:13:58;-6.80;99.90
15111;DHT22;7656;51.954;7.998;2022-12-17T19:18:19;-6.50;99.90
15111;DHT22;7656;51.954;7.998;2022-12-17T19:22:40;-6.40;99.90
15111;DHT22;7656;51.954;7.998;2022-12-17T19:27:01;-6.40;99.90
15111;DHT22;7656;51.954;7.998;2022-12-17T19:31:24;-6.30;99.90
15111;DHT22;7656;51.954;7.998;2022-12-17T19:35:46;-6.60;99.90
15111;DHT22;7656;51.954;7.998;2022-12-17T19:40:08;-6.70;99.90
15111;DHT22;7656;51.954;7.998;2022-12-17T19:44:29;-6.40;99.90
15111;DHT22;7656;51.954;7.998;2022-12-17T19:48:51;-6.60;99.90
15111;DHT22;7656;51.954;7.998;2022-12-17T19:53:13;-6.30;99.90
15111;DHT22;7656;51.954;7.998;2022-12-17T19:57:35;-6.60;99.90
15111;DHT22;7656;51.954;7.998;2022-12-17T20:01:56;-6.80;99.90
15111;DHT22;7656;51.954;7.998;2022-12-17T20:06:19;-6.70;99.90
15111;DHT22;7656;51.954;7.998;2022-12-17T20:10:42;-6.90;99.90
15111;DHT22;7656;51.954;7.998;2022-12-17T20:15:03;-6.70;99.90
15111;DHT22;7656;51.954;7.998;2022-12-17T20:19:30;-6.40;99.90
15111;DHT22;7656;51.954;7.998;2022-12-17T20:23:52;-6.50;99.90
15111;DHT22;7656;51.954;7.998;2022-12-17T20:28:13;-6.40;99.90
15111;DHT22;7656;51.954;7.998;2022-12-17T20:32:34;-6.20;99.90
15111;DHT22;7656;51.954;7.998;2022-12-17T20:36:55;-6.10;99.90
15111;DHT22;7656;51.954;7.998;2022-12-17T20:41:19;-5.90;99.90
15111;DHT22;7656;51.954;7.998;2022-12-17T20:45:48;-5.90;99.90
15111;DHT22;7656;51.954;7.998;2022-12-17T20:50:10;-5.80;99.90
15111;DHT22;7656;51.954;7.998;2022-12-17T20:54:31;-5.80;99.90
15111;DHT22;7656;51.954;7.998;2022-12-17T20:58:54;-5.80;99.90
15111;DHT22;7656;51.954;7.998;2022-12-17T21:03:19;-5.90;99.90
15111;DHT22;7656;51.954;7.998;2022-12-17T21:07:40;-6.00;99.90
15111;DHT22;7656;51.954;7.998;2022-12-17T21:12:01;-6.00;99.90
15111;DHT22;7656;51.954;7.998;2022-12-17T21:16:26;-6.00;99.90
15111;DHT22;7656;51.954;7.998;2022-12-17T21:21:03;-6.10;99.90
15111;DHT22;7656;51.954;7.998;2022-12-17T21:25:26;-6.40;99.90
15111;DHT22;7656;51.954;7.998;2022-12-17T21:29:47;-6.40;99.90
15111;DHT22;7656;51.954;7.998;2022-12-17T21:34:14;-6.40;99.90
15111;DHT22;7656;51.954;7.998;2022-12-17T21:38:41;-6.40;99.90
15111;DHT22;7656;51.954;7.998;2022-12-17T21:43:02;-6.40;99.90
15111;DHT22;7656;51.954;7.998;2022-12-17T21:47:23;-6.50;99.90
15111;DHT22;7656;51.954;7.998;2022-12-17T21:51:44;-6.80;99.90
15111;DHT22;7656;51.954;7.998;2022-12-17T21:56:08;-7.00;99.90
15111;DHT22;7656;51.954;7.998;2022-12-17T22:00:31;-7.10;99.90
15111;DHT22;7656;51.954;7.998;2022-12-17T22:04:52;-7.30;99.90
15111;DHT22;7656;51.954;7.998;2022-12-17T22:09:13;-7.40;99.90
15111;DHT22;7656;51.954;7.998;2022-12-17T22:13:38;-7.30;99.90
15111;DHT22;7656;51.954;7.998;2022-12-17T22:18:19;-7.10;99.90
15111;DHT22;7656;51.954;7.998;2022-12-17T22:22:40;-7.00;99.90
15111;DHT22;7656;51.954;7.998;2022-12-17T22:27:02;-6.90;99.90
15111;DHT22;7656;51.954;7.998;2022-12-17T22:31:23;-6.90;99.90
15111;DHT22;7656;51.954;7.998;2022-12-17T22:36:03;-7.50;99.90
15111;DHT22;7656;51.954;7.998;2022-12-17T22:40:25;-7.60;99.90
15111;DHT22;7656;51.954;7.998;2022-12-17T22:44:47;-7.50;99.90
15111;DHT22;7656;51.954;7.998;2022-12-17T22:49:08;-7.40;99.90
15111;DHT22;7656;51.954;7.998;2022-12-17T22:53:30;-7.60;99.90
15111;DHT22;7656;51.954;7.998;2022-12-17T22:57:51;-7.50;99.90
15111;DHT22;7656;51.954;7.998;2022-12-17T23:02:12;-7.40;99.90
15111;DHT22;7656;51.954;7.998;2022-12-17T23:06:33;-7.80;99.90
15111;DHT22;7656;51.954;7.998;2022-12-17T23:10:54;-7.90;99.90
15111;DHT22;7656;51.954;7.998;2022-12-17T23:15:16;-8.30;99.90
15111;DHT22;7656;51.954;7.998;2022-12-17T23:19:41;-8.50;99.90
15111;DHT22;7656;51.954;7.998;2022-12-17T23:24:03;-8.10;99.90
15111;DHT22;7656;51.954;7.998;2022-12-17T23:28:24;-7.90;99.90
15111;DHT22;7656;51.954;7.998;2022-12-17T23:32:46;-7.70;99.90
15111;DHT22;7656;51.954;7.998;2022-12-17T23:37:07;-8.40;99.90
15111;DHT22;7656;51.954;7.998;2022-12-17T23:41:29;-8.90;99.90
15111;DHT22;7656;51.954;7.998;2022-12-17T23:45:50;-8.70;99.90
15111;DHT22;7656;51.954;7.998;2022-12-17T23:50:11;-8.40;99.90
15111;DHT22;7656;51.954;7.998;2022-12-17T23:54:32;-8.30;99.90
15111;DHT22;7656;51.954;7.998;2022-12-17T23:58:58;-8.10;99.90
